Kissimmee Gateway Airport Orlando US
ICAO: KISM
IATA: ISM
Category: Medium
Scheduled Services: No

Elevation: 82 ft
TransAlt. 18000 ft.

Airport Communications:
ORLANDO APP/DEP:119.4
AWOS 3:128.775
ORLANDO CLNC DEL:119.95
CTAF:124.45
GND:121.7
TWR:124.45
UNICOM:122.95

KISM Zoom In..

Runways:

(A) RW 06 length 5001 ft width 150 ft
---- / hdg 63

(B) RW 15 length 6001 ft width 100 ft
ILS 109.75 / hdg 153

(C) RW 24 length 5001 ft width 150 ft
---- / hdg 243

(D) RW 33 length 6001 ft width 100 ft
---- / hdg 333

Location; KISM
Day. 05 / Time. 17.56 Zulu
* Altimeter: 30.05
* Temperature: 6/° c. 42.8°f.
* Wind from: 060° Speed 06 kn.
Dewpoint: //° c.
Visibility: 10 Statute Miles.
Clouds: Clear (automated report).

KISM 051756Z 06006KT 10SM CLR 31/23 A3005 RMK AO2 SLP176 6//// T03110228 10311 20233 58012 PNO $


Wind From 060°
Speed 06 kn.

 
 
jpsmedia worldairports.se 2020   terms of use